This is the latest recevied weather packets stored in our database for station/object OE6ACM-14. If no packets are shown the sender has not sent any weather packets the latest 10 day(s).
| Time | Temp. | Humidity | Pressure | Rain* | Wind** | Luminosity | Snow |
|---|---|---|---|---|---|---|---|
| 1777797096 | 33.33° C | 19% | 929.2 hPa | - | - | - | - |
| 1777796796 | 35° C | 18% | 929.2 hPa | - | - | - | - |
| 1777796496 | 35.56° C | 18% | 929.2 hPa | - | - | - | - |
| 1777796196 | 34.44° C | 18% | 929.3 hPa | - | - | - | - |
| 1777795896 | 32.78° C | 19% | 929.3 hPa | - | - | - | - |
| 1777795596 | 31.11° C | 22% | 929.4 hPa | - | - | - | - |
| 1777795296 | 31.11° C | 21% | 929.5 hPa | - | - | - | - |
| 1777794996 | 30° C | 22% | 929.5 hPa | - | - | - | - |
| 1777794696 | 28.89° C | 22% | 929.5 hPa | - | - | - | - |
| 1777794396 | 30.56° C | 22% | 929.4 hPa | - | - | - | - |
| 1777794096 | 28.89° C | 24% | 929.5 hPa | - | - | - | - |
| 1777793796 | 26.11° C | 26% | 929.6 hPa | - | - | - | - |
| 1777793496 | 27.78° C | 24% | 929.6 hPa | - | - | - | - |
| 1777793196 | 28.33° C | 25% | 929.6 hPa | - | - | - | - |
| 1777792896 | 26.11° C | 27% | 929.6 hPa | - | - | - | - |
| 1777792596 | 24.44° C | 29% | 929.7 hPa | - | - | - | - |
| 1777792296 | 23.33° C | 30% | 929.7 hPa | - | - | - | - |
| 1777791996 | 23.33° C | 30% | 929.8 hPa | - | - | - | - |
| 1777791696 | 23.33° C | 31% | 929.8 hPa | - | - | - | - |
| 1777791396 | 22.22° C | 31% | 929.8 hPa | - | - | - | - |
| 1777791096 | 21.67° C | 33% | 929.9 hPa | - | - | - | - |
| 1777790796 | 22.22° C | 32% | 929.9 hPa | - | - | - | - |
| 1777790496 | 21.11° C | 33% | 929.9 hPa | - | - | - | - |
| 1777790196 | 21.67° C | 33% | 929.9 hPa | - | - | - | - |
| 1777789896 | 22.22° C | 32% | 929.9 hPa | - | - | - | - |
* Rain since midnight (hover to see other rain measurements)
** Current wind speed in m/s (hover to see current wind gust speed)